sensor_id;sensor_type;location;lat;lon;timestamp;temperature;humidity
11559;DHT22;5835;42.930;25.178;2024-03-02T00:00:43;7.30;31.70
11559;DHT22;5835;42.930;25.178;2024-03-02T00:03:12;7.40;1.50
11559;DHT22;5835;42.930;25.178;2024-03-02T00:05:40;7.30;1.00
11559;DHT22;5835;42.930;25.178;2024-03-02T00:08:08;7.40;1.00
11559;DHT22;5835;42.930;25.178;2024-03-02T00:10:37;7.30;4.50
11559;DHT22;5835;42.930;25.178;2024-03-02T00:13:07;7.20;24.00
11559;DHT22;5835;42.930;25.178;2024-03-02T00:15:46;7.20;72.10
11559;DHT22;5835;42.930;25.178;2024-03-02T00:18:18;7.10;97.70
11559;DHT22;5835;42.930;25.178;2024-03-02T00:20:46;7.10;99.90
11559;DHT22;5835;42.930;25.178;2024-03-02T00:23:16;7.10;99.90
11559;DHT22;5835;42.930;25.178;2024-03-02T00:25:48;7.20;99.90
11559;DHT22;5835;42.930;25.178;2024-03-02T00:28:19;7.30;99.90
11559;DHT22;5835;42.930;25.178;2024-03-02T00:30:58;7.40;99.90
11559;DHT22;5835;42.930;25.178;2024-03-02T00:33:28;7.50;67.70
11559;DHT22;5835;42.930;25.178;2024-03-02T00:35:57;7.60;66.90
11559;DHT22;5835;42.930;25.178;2024-03-02T00:38:26;7.70;17.50
11559;DHT22;5835;42.930;25.178;2024-03-02T00:40:54;7.50;9.30
11559;DHT22;5835;42.930;25.178;2024-03-02T00:43:43;7.60;24.00
11559;DHT22;5835;42.930;25.178;2024-03-02T00:46:19;7.70;11.90
11559;DHT22;5835;42.930;25.178;2024-03-02T00:48:57;7.80;11.90
11559;DHT22;5835;42.930;25.178;2024-03-02T00:51:26;7.90;1.00
11559;DHT22;5835;42.930;25.178;2024-03-02T00:53:55;7.80;1.00
11559;DHT22;5835;42.930;25.178;2024-03-02T00:56:23;7.90;1.00
11559;DHT22;5835;42.930;25.178;2024-03-02T00:58:52;7.90;1.00
11559;DHT22;5835;42.930;25.178;2024-03-02T01:01:21;8.00;1.00
11559;DHT22;5835;42.930;25.178;2024-03-02T01:03:49;8.00;99.90
11559;DHT22;5835;42.930;25.178;2024-03-02T01:06:17;7.90;99.90
11559;DHT22;5835;42.930;25.178;2024-03-02T01:08:45;7.70;1.00
11559;DHT22;5835;42.930;25.178;2024-03-02T01:11:13;7.90;1.00
11559;DHT22;5835;42.930;25.178;2024-03-02T01:13:40;7.90;99.90
11559;DHT22;5835;42.930;25.178;2024-03-02T01:16:08;7.80;99.90
11559;DHT22;5835;42.930;25.178;2024-03-02T01:18:37;7.90;99.90
11559;DHT22;5835;42.930;25.178;2024-03-02T01:21:05;7.90;99.90
11559;DHT22;5835;42.930;25.178;2024-03-02T01:23:32;7.90;75.60
11559;DHT22;5835;42.930;25.178;2024-03-02T01:26:00;7.90;99.90
11559;DHT22;5835;42.930;25.178;2024-03-02T01:28:28;8.10;99.90
11559;DHT22;5835;42.930;25.178;2024-03-02T01:30:55;8.00;99.90
11559;DHT22;5835;42.930;25.178;2024-03-02T01:33:22;7.80;1.00
11559;DHT22;5835;42.930;25.178;2024-03-02T01:35:51;7.70;34.70
11559;DHT22;5835;42.930;25.178;2024-03-02T01:38:19;7.80;99.90
11559;DHT22;5835;42.930;25.178;2024-03-02T01:40:46;7.90;99.90
11559;DHT22;5835;42.930;25.178;2024-03-02T01:43:14;8.00;1.00
11559;DHT22;5835;42.930;25.178;2024-03-02T01:45:42;8.00;1.00
11559;DHT22;5835;42.930;25.178;2024-03-02T01:48:09;7.80;99.90
11559;DHT22;5835;42.930;25.178;2024-03-02T01:50:37;7.70;1.00
11559;DHT22;5835;42.930;25.178;2024-03-02T01:53:06;7.80;1.00
11559;DHT22;5835;42.930;25.178;2024-03-02T01:55:35;7.70;99.90
11559;DHT22;5835;42.930;25.178;2024-03-02T01:58:03;7.60;99.90
11559;DHT22;5835;42.930;25.178;2024-03-02T02:00:30;7.70;99.90
11559;DHT22;5835;42.930;25.178;2024-03-02T02:02:58;7.60;99.90
11559;DHT22;5835;42.930;25.178;2024-03-02T02:05:25;7.50;1.00
11559;DHT22;5835;42.930;25.178;2024-03-02T02:07:53;7.30;1.00
11559;DHT22;5835;42.930;25.178;2024-03-02T02:10:22;7.30;48.50
11559;DHT22;5835;42.930;25.178;2024-03-02T02:12:50;7.50;80.20
11559;DHT22;5835;42.930;25.178;2024-03-02T02:15:24;7.50;55.70
11559;DHT22;5835;42.930;25.178;2024-03-02T02:17:52;7.30;47.60
11559;DHT22;5835;42.930;25.178;2024-03-02T02:20:20;7.30;92.50
11559;DHT22;5835;42.930;25.178;2024-03-02T02:22:58;7.30;99.90
11559;DHT22;5835;42.930;25.178;2024-03-02T02:25:26;7.30;99.90
11559;DHT22;5835;42.930;25.178;2024-03-02T02:27:54;7.20;99.90
11559;DHT22;5835;42.930;25.178;2024-03-02T02:30:22;7.10;99.90
11559;DHT22;5835;42.930;25.178;2024-03-02T02:32:50;7.20;99.90
11559;DHT22;5835;42.930;25.178;2024-03-02T02:35:17;7.20;99.90
11559;DHT22;5835;42.930;25.178;2024-03-02T02:37:46;7.10;99.90
11559;DHT22;5835;42.930;25.178;2024-03-02T02:40:15;7.00;99.90
11559;DHT22;5835;42.930;25.178;2024-03-02T02:42:44;6.90;99.90
11559;DHT22;5835;42.930;25.178;2024-03-02T02:45:12;6.80;99.90
11559;DHT22;5835;42.930;25.178;2024-03-02T02:47:40;6.80;99.90
11559;DHT22;5835;42.930;25.178;2024-03-02T02:50:08;6.80;99.90
11559;DHT22;5835;42.930;25.178;2024-03-02T02:52:38;6.90;99.90
11559;DHT22;5835;42.930;25.178;2024-03-02T02:55:07;6.90;99.90
11559;DHT22;5835;42.930;25.178;2024-03-02T02:57:37;6.90;99.90
11559;DHT22;5835;42.930;25.178;2024-03-02T03:00:06;7.10;99.90
11559;DHT22;5835;42.930;25.178;2024-03-02T03:02:37;7.40;99.90
11559;DHT22;5835;42.930;25.178;2024-03-02T03:05:08;7.30;99.90
11559;DHT22;5835;42.930;25.178;2024-03-02T03:07:36;7.20;99.90
11559;DHT22;5835;42.930;25.178;2024-03-02T03:10:06;7.40;99.90
11559;DHT22;5835;42.930;25.178;2024-03-02T03:12:35;7.50;99.90
11559;DHT22;5835;42.930;25.178;2024-03-02T03:15:03;7.40;99.90
11559;DHT22;5835;42.930;25.178;2024-03-02T03:17:32;7.10;99.90
11559;DHT22;5835;42.930;25.178;2024-03-02T03:20:00;7.00;99.90
11559;DHT22;5835;42.930;25.178;2024-03-02T03:22:29;7.00;99.90
11559;DHT22;5835;42.930;25.178;2024-03-02T03:24:57;6.90;99.90
11559;DHT22;5835;42.930;25.178;2024-03-02T03:27:25;6.90;99.90
11559;DHT22;5835;42.930;25.178;2024-03-02T03:29:55;6.90;99.90
11559;DHT22;5835;42.930;25.178;2024-03-02T03:32:22;7.10;99.90
11559;DHT22;5835;42.930;25.178;2024-03-02T03:34:50;7.30;99.90
11559;DHT22;5835;42.930;25.178;2024-03-02T03:37:18;7.40;99.90
11559;DHT22;5835;42.930;25.178;2024-03-02T03:39:45;7.30;99.90
11559;DHT22;5835;42.930;25.178;2024-03-02T03:42:13;7.50;99.90
11559;DHT22;5835;42.930;25.178;2024-03-02T03:44:40;7.40;99.90
11559;DHT22;5835;42.930;25.178;2024-03-02T03:47:09;7.20;99.90
11559;DHT22;5835;42.930;25.178;2024-03-02T03:49:37;7.50;99.90
11559;DHT22;5835;42.930;25.178;2024-03-02T03:52:04;7.50;99.90
11559;DHT22;5835;42.930;25.178;2024-03-02T03:54:32;7.50;99.90
11559;DHT22;5835;42.930;25.178;2024-03-02T03:56:59;7.70;99.90
11559;DHT22;5835;42.930;25.178;2024-03-02T03:59:27;7.70;99.90
11559;DHT22;5835;42.930;25.178;2024-03-02T04:01:57;7.80;99.90
11559;DHT22;5835;42.930;25.178;2024-03-02T04:04:26;7.80;99.90
11559;DHT22;5835;42.930;25.178;2024-03-02T04:06:53;7.90;99.90
11559;DHT22;5835;42.930;25.178;2024-03-02T04:09:21;7.70;99.90
11559;DHT22;5835;42.930;25.178;2024-03-02T04:11:48;7.70;99.90
11559;DHT22;5835;42.930;25.178;2024-03-02T04:14:16;7.80;99.90
11559;DHT22;5835;42.930;25.178;2024-03-02T04:16:43;7.80;99.90
11559;DHT22;5835;42.930;25.178;2024-03-02T04:19:11;7.80;87.40
11559;DHT22;5835;42.930;25.178;2024-03-02T04:21:40;7.80;99.90
11559;DHT22;5835;42.930;25.178;2024-03-02T04:24:07;7.60;96.00
11559;DHT22;5835;42.930;25.178;2024-03-02T04:26:35;7.80;99.90
11559;DHT22;5835;42.930;25.178;2024-03-02T04:29:02;7.80;82.20
11559;DHT22;5835;42.930;25.178;2024-03-02T04:31:30;7.80;55.50
11559;DHT22;5835;42.930;25.178;2024-03-02T04:33:58;7.80;29.10
11559;DHT22;5835;42.930;25.178;2024-03-02T04:36:26;7.80;51.40
11559;DHT22;5835;42.930;25.178;2024-03-02T04:38:55;8.00;14.10
11559;DHT22;5835;42.930;25.178;2024-03-02T04:41:22;8.00;1.00
11559;DHT22;5835;42.930;25.178;2024-03-02T04:43:50;8.00;1.00
11559;DHT22;5835;42.930;25.178;2024-03-02T04:46:18;8.00;1.00
11559;DHT22;5835;42.930;25.178;2024-03-02T04:48:45;7.70;1.00
11559;DHT22;5835;42.930;25.178;2024-03-02T04:51:15;7.60;1.00
11559;DHT22;5835;42.930;25.178;2024-03-02T04:53:42;7.50;6.00
11559;DHT22;5835;42.930;25.178;2024-03-02T04:56:12;7.60;43.60
11559;DHT22;5835;42.930;25.178;2024-03-02T04:59:10;7.70;52.20
11559;DHT22;5835;42.930;25.178;2024-03-02T05:01:38;7.70;5.90
11559;DHT22;5835;42.930;25.178;2024-03-02T05:04:05;7.60;7.10
11559;DHT22;5835;42.930;25.178;2024-03-02T05:06:33;7.50;45.70
11559;DHT22;5835;42.930;25.178;2024-03-02T05:09:00;7.50;57.20
11559;DHT22;5835;42.930;25.178;2024-03-02T05:11:29;7.50;99.90
11559;DHT22;5835;42.930;25.178;2024-03-02T05:14:16;7.50;96.40
11559;DHT22;5835;42.930;25.178;2024-03-02T05:16:43;7.50;99.90
11559;DHT22;5835;42.930;25.178;2024-03-02T05:19:11;7.40;99.90
11559;DHT22;5835;42.930;25.178;2024-03-02T05:21:38;7.10;99.90
11559;DHT22;5835;42.930;25.178;2024-03-02T05:24:06;6.90;99.90
11559;DHT22;5835;42.930;25.178;2024-03-02T05:26:35;6.90;99.90
11559;DHT22;5835;42.930;25.178;2024-03-02T05:29:02;6.80;99.90
11559;DHT22;5835;42.930;25.178;2024-03-02T05:31:30;6.80;99.90
11559;DHT22;5835;42.930;25.178;2024-03-02T05:33:57;6.70;99.90
11559;DHT22;5835;42.930;25.178;2024-03-02T05:36:25;6.70;99.90
11559;DHT22;5835;42.930;25.178;2024-03-02T05:38:52;6.80;99.90
11559;DHT22;5835;42.930;25.178;2024-03-02T05:41:19;6.80;99.90
11559;DHT22;5835;42.930;25.178;2024-03-02T05:43:48;6.80;99.90
11559;DHT22;5835;42.930;25.178;2024-03-02T05:46:16;6.80;99.90
11559;DHT22;5835;42.930;25.178;2024-03-02T05:48:43;6.80;99.90
11559;DHT22;5835;42.930;25.178;2024-03-02T05:51:11;6.70;99.90
11559;DHT22;5835;42.930;25.178;2024-03-02T05:53:38;6.70;99.90
11559;DHT22;5835;42.930;25.178;2024-03-02T05:56:06;6.60;99.90
11559;DHT22;5835;42.930;25.178;2024-03-02T05:58:35;6.60;99.90
11559;DHT22;5835;42.930;25.178;2024-03-02T06:01:17;6.60;99.90
11559;DHT22;5835;42.930;25.178;2024-03-02T06:03:45;6.60;99.90
11559;DHT22;5835;42.930;25.178;2024-03-02T06:06:12;6.80;99.90
11559;DHT22;5835;42.930;25.178;2024-03-02T06:08:41;6.80;99.90
11559;DHT22;5835;42.930;25.178;2024-03-02T06:11:08;6.80;99.90
11559;DHT22;5835;42.930;25.178;2024-03-02T06:13:35;6.90;99.90
11559;DHT22;5835;42.930;25.178;2024-03-02T06:16:03;6.90;99.90
11559;DHT22;5835;42.930;25.178;2024-03-02T06:18:32;6.90;99.90
11559;DHT22;5835;42.930;25.178;2024-03-02T06:21:00;7.00;99.90
11559;DHT22;5835;42.930;25.178;2024-03-02T06:23:29;7.00;99.90
11559;DHT22;5835;42.930;25.178;2024-03-02T06:25:56;7.00;99.90
11559;DHT22;5835;42.930;25.178;2024-03-02T06:28:24;7.10;99.90
11559;DHT22;5835;42.930;25.178;2024-03-02T06:30:52;7.10;99.90
11559;DHT22;5835;42.930;25.178;2024-03-02T06:33:19;7.10;99.90
11559;DHT22;5835;42.930;25.178;2024-03-02T06:35:48;7.00;99.90
11559;DHT22;5835;42.930;25.178;2024-03-02T06:38:16;7.00;99.90
11559;DHT22;5835;42.930;25.178;2024-03-02T06:40:43;6.90;99.90
11559;DHT22;5835;42.930;25.178;2024-03-02T06:43:11;7.00;99.90
11559;DHT22;5835;42.930;25.178;2024-03-02T06:45:38;7.10;99.90
11559;DHT22;5835;42.930;25.178;2024-03-02T06:48:06;7.10;99.90
11559;DHT22;5835;42.930;25.178;2024-03-02T06:50:34;7.30;99.90
11559;DHT22;5835;42.930;25.178;2024-03-02T06:53:03;7.20;99.90
11559;DHT22;5835;42.930;25.178;2024-03-02T06:55:30;7.20;99.90
11559;DHT22;5835;42.930;25.178;2024-03-02T06:57:58;7.20;99.90
11559;DHT22;5835;42.930;25.178;2024-03-02T07:00:25;7.20;99.90
11559;DHT22;5835;42.930;25.178;2024-03-02T07:02:53;7.30;99.90
11559;DHT22;5835;42.930;25.178;2024-03-02T07:05:20;7.30;99.90
11559;DHT22;5835;42.930;25.178;2024-03-02T07:07:48;7.40;99.90
11559;DHT22;5835;42.930;25.178;2024-03-02T07:10:17;7.40;99.90
11559;DHT22;5835;42.930;25.178;2024-03-02T07:12:44;7.50;99.90
11559;DHT22;5835;42.930;25.178;2024-03-02T07:15:12;7.50;99.90
11559;DHT22;5835;42.930;25.178;2024-03-02T07:17:55;7.40;99.90
11559;DHT22;5835;42.930;25.178;2024-03-02T07:20:23;7.40;99.90
11559;DHT22;5835;42.930;25.178;2024-03-02T07:22:50;7.30;99.90
11559;DHT22;5835;42.930;25.178;2024-03-02T07:25:19;7.20;99.90
11559;DHT22;5835;42.930;25.178;2024-03-02T07:27:46;7.20;99.90
11559;DHT22;5835;42.930;25.178;2024-03-02T07:30:14;7.20;99.90
11559;DHT22;5835;42.930;25.178;2024-03-02T07:32:43;7.20;99.90
11559;DHT22;5835;42.930;25.178;2024-03-02T07:35:12;7.30;99.90
11559;DHT22;5835;42.930;25.178;2024-03-02T07:37:41;7.30;99.90
11559;DHT22;5835;42.930;25.178;2024-03-02T07:40:10;7.30;99.90
11559;DHT22;5835;42.930;25.178;2024-03-02T07:42:40;7.40;99.90
11559;DHT22;5835;42.930;25.178;2024-03-02T07:45:08;7.60;99.90
11559;DHT22;5835;42.930;25.178;2024-03-02T07:47:36;7.60;99.90
11559;DHT22;5835;42.930;25.178;2024-03-02T07:50:04;7.60;99.90
11559;DHT22;5835;42.930;25.178;2024-03-02T07:52:33;7.50;99.90
11559;DHT22;5835;42.930;25.178;2024-03-02T07:55:00;7.70;99.90
11559;DHT22;5835;42.930;25.178;2024-03-02T07:57:28;7.90;99.90
11559;DHT22;5835;42.930;25.178;2024-03-02T07:59:59;7.90;99.90
11559;DHT22;5835;42.930;25.178;2024-03-02T08:02:26;8.20;99.90
11559;DHT22;5835;42.930;25.178;2024-03-02T08:04:54;8.30;99.90
11559;DHT22;5835;42.930;25.178;2024-03-02T08:07:22;8.40;99.90
11559;DHT22;5835;42.930;25.178;2024-03-02T08:09:50;8.30;99.90
11559;DHT22;5835;42.930;25.178;2024-03-02T08:12:17;8.20;99.90
11559;DHT22;5835;42.930;25.178;2024-03-02T08:14:47;8.20;99.90
11559;DHT22;5835;42.930;25.178;2024-03-02T08:17:16;8.20;99.90
11559;DHT22;5835;42.930;25.178;2024-03-02T08:19:44;8.20;99.90
11559;DHT22;5835;42.930;25.178;2024-03-02T08:22:17;8.10;99.90
11559;DHT22;5835;42.930;25.178;2024-03-02T08:24:44;8.10;99.90
11559;DHT22;5835;42.930;25.178;2024-03-02T08:27:12;8.30;99.90
11559;DHT22;5835;42.930;25.178;2024-03-02T08:29:40;8.40;99.90
11559;DHT22;5835;42.930;25.178;2024-03-02T08:32:08;8.40;99.90
11559;DHT22;5835;42.930;25.178;2024-03-02T08:34:37;8.30;99.90
11559;DHT22;5835;42.930;25.178;2024-03-02T08:37:05;8.60;99.90
11559;DHT22;5835;42.930;25.178;2024-03-02T08:39:32;8.60;99.90
11559;DHT22;5835;42.930;25.178;2024-03-02T08:41:59;8.70;99.90
11559;DHT22;5835;42.930;25.178;2024-03-02T08:44:27;8.90;99.90
11559;DHT22;5835;42.930;25.178;2024-03-02T08:46:54;8.90;99.90
11559;DHT22;5835;42.930;25.178;2024-03-02T08:49:22;8.90;99.90
11559;DHT22;5835;42.930;25.178;2024-03-02T08:51:51;9.00;99.90
11559;DHT22;5835;42.930;25.178;2024-03-02T08:54:20;8.80;99.90
11559;DHT22;5835;42.930;25.178;2024-03-02T08:56:48;8.90;99.90
11559;DHT22;5835;42.930;25.178;2024-03-02T08:59:15;8.90;99.90
11559;DHT22;5835;42.930;25.178;2024-03-02T09:01:43;9.00;99.90
11559;DHT22;5835;42.930;25.178;2024-03-02T09:04:11;9.10;99.90
11559;DHT22;5835;42.930;25.178;2024-03-02T09:06:38;9.00;99.90
11559;DHT22;5835;42.930;25.178;2024-03-02T09:09:08;9.00;99.90
11559;DHT22;5835;42.930;25.178;2024-03-02T09:11:36;8.50;99.90
11559;DHT22;5835;42.930;25.178;2024-03-02T09:14:04;8.80;99.90
11559;DHT22;5835;42.930;25.178;2024-03-02T09:16:32;9.00;99.90
11559;DHT22;5835;42.930;25.178;2024-03-02T09:19:00;9.40;99.90
11559;DHT22;5835;42.930;25.178;2024-03-02T09:21:27;9.40;99.90
11559;DHT22;5835;42.930;25.178;2024-03-02T09:23:55;9.50;99.90
11559;DHT22;5835;42.930;25.178;2024-03-02T09:26:25;9.90;90.10
11559;DHT22;5835;42.930;25.178;2024-03-02T09:28:52;10.10;1.00
11559;DHT22;5835;42.930;25.178;2024-03-02T09:31:20;9.70;1.00
11559;DHT22;5835;42.930;25.178;2024-03-02T09:33:47;9.90;1.00
11559;DHT22;5835;42.930;25.178;2024-03-02T09:36:18;9.70;1.00
11559;DHT22;5835;42.930;25.178;2024-03-02T09:38:45;10.10;1.00
11559;DHT22;5835;42.930;25.178;2024-03-02T09:41:13;10.50;99.90
11559;DHT22;5835;42.930;25.178;2024-03-02T09:43:43;10.60;99.90
11559;DHT22;5835;42.930;25.178;2024-03-02T09:46:13;10.50;1.00
11559;DHT22;5835;42.930;25.178;2024-03-02T09:48:40;10.50;1.00
11559;DHT22;5835;42.930;25.178;2024-03-02T09:51:08;10.50;99.90
11559;DHT22;5835;42.930;25.178;2024-03-02T09:53:37;10.40;1.00
11559;DHT22;5835;42.930;25.178;2024-03-02T09:56:05;10.10;99.90
11559;DHT22;5835;42.930;25.178;2024-03-02T09:58:33;9.70;1.00
11559;DHT22;5835;42.930;25.178;2024-03-02T10:01:05;10.00;99.90
11559;DHT22;5835;42.930;25.178;2024-03-02T10:03:34;9.90;30.80
11559;DHT22;5835;42.930;25.178;2024-03-02T10:06:19;10.30;99.90
11559;DHT22;5835;42.930;25.178;2024-03-02T10:08:47;10.30;99.90
11559;DHT22;5835;42.930;25.178;2024-03-02T10:11:28;10.00;1.00
11559;DHT22;5835;42.930;25.178;2024-03-02T10:14:07;10.00;1.00
11559;DHT22;5835;42.930;25.178;2024-03-02T10:16:38;10.20;1.00
11559;DHT22;5835;42.930;25.178;2024-03-02T10:19:19;10.40;99.90
11559;DHT22;5835;42.930;25.178;2024-03-02T10:21:47;10.20;69.50
11559;DHT22;5835;42.930;25.178;2024-03-02T10:24:15;9.90;1.00
11559;DHT22;5835;42.930;25.178;2024-03-02T10:26:42;10.00;55.60
11559;DHT22;5835;42.930;25.178;2024-03-02T10:29:10;10.20;99.90
11559;DHT22;5835;42.930;25.178;2024-03-02T10:31:40;10.20;1.00
11559;DHT22;5835;42.930;25.178;2024-03-02T10:34:09;10.20;1.00
11559;DHT22;5835;42.930;25.178;2024-03-02T10:36:37;10.20;70.90
11559;DHT22;5835;42.930;25.178;2024-03-02T10:39:08;9.90;99.90
11559;DHT22;5835;42.930;25.178;2024-03-02T10:41:37;9.60;99.90
11559;DHT22;5835;42.930;25.178;2024-03-02T10:44:06;9.60;1.00
11559;DHT22;5835;42.930;25.178;2024-03-02T10:46:35;9.70;1.00
11559;DHT22;5835;42.930;25.178;2024-03-02T10:49:05;9.60;1.00
11559;DHT22;5835;42.930;25.178;2024-03-02T10:51:33;9.60;1.00
11559;DHT22;5835;42.930;25.178;2024-03-02T10:54:03;9.60;1.00
11559;DHT22;5835;42.930;25.178;2024-03-02T10:56:31;9.80;1.00
11559;DHT22;5835;42.930;25.178;2024-03-02T10:59:03;10.20;1.00
11559;DHT22;5835;42.930;25.178;2024-03-02T11:01:32;10.20;99.90
11559;DHT22;5835;42.930;25.178;2024-03-02T11:04:04;10.20;1.00
11559;DHT22;5835;42.930;25.178;2024-03-02T11:06:36;10.30;99.90
11559;DHT22;5835;42.930;25.178;2024-03-02T11:09:07;9.90;99.90
11559;DHT22;5835;42.930;25.178;2024-03-02T11:11:38;9.70;1.00
11559;DHT22;5835;42.930;25.178;2024-03-02T11:14:13;9.60;1.00
11559;DHT22;5835;42.930;25.178;2024-03-02T11:16:42;9.60;25.40
11559;DHT22;5835;42.930;25.178;2024-03-02T11:19:13;9.80;99.90
11559;DHT22;5835;42.930;25.178;2024-03-02T11:21:44;9.60;1.00
11559;DHT22;5835;42.930;25.178;2024-03-02T11:24:32;9.60;1.00
11559;DHT22;5835;42.930;25.178;2024-03-02T11:27:01;9.80;1.00
11559;DHT22;5835;42.930;25.178;2024-03-02T11:29:45;9.70;1.00
11559;DHT22;5835;42.930;25.178;2024-03-02T11:32:17;9.80;1.00
11559;DHT22;5835;42.930;25.178;2024-03-02T11:34:48;9.70;1.00
11559;DHT22;5835;42.930;25.178;2024-03-02T11:37:17;9.60;1.00
11559;DHT22;5835;42.930;25.178;2024-03-02T11:39:48;9.70;1.00
11559;DHT22;5835;42.930;25.178;2024-03-02T11:42:16;9.60;99.90
11559;DHT22;5835;42.930;25.178;2024-03-02T11:44:46;9.40;99.90
11559;DHT22;5835;42.930;25.178;2024-03-02T11:47:16;9.50;99.90
11559;DHT22;5835;42.930;25.178;2024-03-02T11:49:51;9.50;1.00
11559;DHT22;5835;42.930;25.178;2024-03-02T11:52:19;9.40;1.00
11559;DHT22;5835;42.930;25.178;2024-03-02T11:54:47;9.50;68.30
11559;DHT22;5835;42.930;25.178;2024-03-02T11:57:17;9.60;99.90
11559;DHT22;5835;42.930;25.178;2024-03-02T11:59:45;9.50;99.90
11559;DHT22;5835;42.930;25.178;2024-03-02T12:02:15;9.50;1.00
11559;DHT22;5835;42.930;25.178;2024-03-02T12:04:44;9.40;11.00
11559;DHT22;5835;42.930;25.178;2024-03-02T12:07:18;9.20;67.80
11559;DHT22;5835;42.930;25.178;2024-03-02T12:09:46;9.20;1.00
11559;DHT22;5835;42.930;25.178;2024-03-02T12:12:16;9.20;92.30
11559;DHT22;5835;42.930;25.178;2024-03-02T12:14:51;9.20;47.50
11559;DHT22;5835;42.930;25.178;2024-03-02T12:17:19;9.30;99.90
11559;DHT22;5835;42.930;25.178;2024-03-02T12:19:49;9.30;1.00
11559;DHT22;5835;42.930;25.178;2024-03-02T12:22:21;9.40;1.00
11559;DHT22;5835;42.930;25.178;2024-03-02T12:24:49;9.30;1.00
11559;DHT22;5835;42.930;25.178;2024-03-02T12:27:17;9.30;1.00
11559;DHT22;5835;42.930;25.178;2024-03-02T12:29:46;9.30;1.00
11559;DHT22;5835;42.930;25.178;2024-03-02T12:32:16;9.40;1.00
11559;DHT22;5835;42.930;25.178;2024-03-02T12:34:46;9.50;99.90
11559;DHT22;5835;42.930;25.178;2024-03-02T12:37:16;9.30;1.00
11559;DHT22;5835;42.930;25.178;2024-03-02T12:39:46;9.20;1.00
11559;DHT22;5835;42.930;25.178;2024-03-02T12:42:14;9.10;99.90
11559;DHT22;5835;42.930;25.178;2024-03-02T12:44:41;9.10;99.90
11559;DHT22;5835;42.930;25.178;2024-03-02T12:47:09;9.20;99.90
11559;DHT22;5835;42.930;25.178;2024-03-02T12:49:40;9.00;1.00
11559;DHT22;5835;42.930;25.178;2024-03-02T12:52:07;9.10;1.00
11559;DHT22;5835;42.930;25.178;2024-03-02T12:54:35;9.00;1.00
11559;DHT22;5835;42.930;25.178;2024-03-02T12:57:04;9.00;1.00
11559;DHT22;5835;42.930;25.178;2024-03-02T12:59:31;9.10;1.00
11559;DHT22;5835;42.930;25.178;2024-03-02T13:01:59;9.10;1.00
11559;DHT22;5835;42.930;25.178;2024-03-02T13:04:31;9.10;1.00
11559;DHT22;5835;42.930;25.178;2024-03-02T13:06:58;9.10;1.00
11559;DHT22;5835;42.930;25.178;2024-03-02T13:09:27;9.10;1.00
11559;DHT22;5835;42.930;25.178;2024-03-02T13:11:54;9.00;1.00
11559;DHT22;5835;42.930;25.178;2024-03-02T13:14:24;9.00;1.00
11559;DHT22;5835;42.930;25.178;2024-03-02T13:16:52;8.90;1.00
11559;DHT22;5835;42.930;25.178;2024-03-02T13:19:19;8.80;1.00
11559;DHT22;5835;42.930;25.178;2024-03-02T13:21:47;9.00;1.00
11559;DHT22;5835;42.930;25.178;2024-03-02T13:24:16;8.90;1.00
11559;DHT22;5835;42.930;25.178;2024-03-02T13:26:45;8.80;1.00
11559;DHT22;5835;42.930;25.178;2024-03-02T13:29:13;8.90;13.30
11559;DHT22;5835;42.930;25.178;2024-03-02T13:31:45;8.80;4.60
11559;DHT22;5835;42.930;25.178;2024-03-02T13:34:16;8.70;46.90
11559;DHT22;5835;42.930;25.178;2024-03-02T13:36:43;8.70;52.00
11559;DHT22;5835;42.930;25.178;2024-03-02T13:39:10;8.80;70.90
11559;DHT22;5835;42.930;25.178;2024-03-02T13:41:41;8.80;50.60
11559;DHT22;5835;42.930;25.178;2024-03-02T13:44:10;8.60;86.50
11559;DHT22;5835;42.930;25.178;2024-03-02T13:46:38;8.60;93.50
11559;DHT22;5835;42.930;25.178;2024-03-02T13:49:07;8.60;98.50
11559;DHT22;5835;42.930;25.178;2024-03-02T13:51:35;8.50;99.90
11559;DHT22;5835;42.930;25.178;2024-03-02T13:54:02;8.50;99.90
11559;DHT22;5835;42.930;25.178;2024-03-02T13:56:30;8.60;99.90
11559;DHT22;5835;42.930;25.178;2024-03-02T13:59:00;8.70;99.90
11559;DHT22;5835;42.930;25.178;2024-03-02T14:01:28;8.50;95.00
11559;DHT22;5835;42.930;25.178;2024-03-02T14:03:56;8.50;99.90
11559;DHT22;5835;42.930;25.178;2024-03-02T14:06:25;8.60;99.90
11559;DHT22;5835;42.930;25.178;2024-03-02T14:08:53;8.50;99.90
11559;DHT22;5835;42.930;25.178;2024-03-02T14:11:21;8.40;99.90
11559;DHT22;5835;42.930;25.178;2024-03-02T14:13:49;8.30;99.90
11559;DHT22;5835;42.930;25.178;2024-03-02T14:16:20;8.30;99.90
11559;DHT22;5835;42.930;25.178;2024-03-02T14:18:47;8.40;99.90
11559;DHT22;5835;42.930;25.178;2024-03-02T14:21:15;8.40;99.90
11559;DHT22;5835;42.930;25.178;2024-03-02T14:23:44;8.40;99.90
11559;DHT22;5835;42.930;25.178;2024-03-02T14:26:11;8.30;99.90
11559;DHT22;5835;42.930;25.178;2024-03-02T14:28:39;8.10;99.90
11559;DHT22;5835;42.930;25.178;2024-03-02T14:31:06;8.20;99.90
11559;DHT22;5835;42.930;25.178;2024-03-02T14:33:34;8.10;99.90
11559;DHT22;5835;42.930;25.178;2024-03-02T14:36:01;8.00;99.90
11559;DHT22;5835;42.930;25.178;2024-03-02T14:38:30;8.10;99.90
11559;DHT22;5835;42.930;25.178;2024-03-02T14:40:59;8.20;99.90
11559;DHT22;5835;42.930;25.178;2024-03-02T14:43:26;8.20;99.90
11559;DHT22;5835;42.930;25.178;2024-03-02T14:45:54;8.30;99.90
11559;DHT22;5835;42.930;25.178;2024-03-02T14:48:21;8.20;99.90
11559;DHT22;5835;42.930;25.178;2024-03-02T14:50:49;8.20;99.90
11559;DHT22;5835;42.930;25.178;2024-03-02T14:53:17;8.30;99.90
11559;DHT22;5835;42.930;25.178;2024-03-02T14:55:44;8.30;99.90
11559;DHT22;5835;42.930;25.178;2024-03-02T14:58:15;8.20;99.90
11559;DHT22;5835;42.930;25.178;2024-03-02T15:00:44;8.20;99.90
11559;DHT22;5835;42.930;25.178;2024-03-02T15:03:11;8.10;99.90
11559;DHT22;5835;42.930;25.178;2024-03-02T15:05:39;8.20;99.90
11559;DHT22;5835;42.930;25.178;2024-03-02T15:08:07;8.20;99.90
11559;DHT22;5835;42.930;25.178;2024-03-02T15:10:34;8.20;99.90
11559;DHT22;5835;42.930;25.178;2024-03-02T15:13:02;8.20;99.90
11559;DHT22;5835;42.930;25.178;2024-03-02T15:15:30;8.20;99.90
11559;DHT22;5835;42.930;25.178;2024-03-02T15:17:58;8.10;99.90
11559;DHT22;5835;42.930;25.178;2024-03-02T15:20:26;8.10;99.90
11559;DHT22;5835;42.930;25.178;2024-03-02T15:22:53;8.10;99.90
11559;DHT22;5835;42.930;25.178;2024-03-02T15:25:20;8.10;99.90
11559;DHT22;5835;42.930;25.178;2024-03-02T15:27:48;8.00;99.90
11559;DHT22;5835;42.930;25.178;2024-03-02T15:30:15;8.00;99.90
11559;DHT22;5835;42.930;25.178;2024-03-02T15:32:45;8.00;99.90
11559;DHT22;5835;42.930;25.178;2024-03-02T15:35:12;8.00;99.90
11559;DHT22;5835;42.930;25.178;2024-03-02T15:37:42;8.00;99.90
11559;DHT22;5835;42.930;25.178;2024-03-02T15:40:10;8.00;99.90
11559;DHT22;5835;42.930;25.178;2024-03-02T15:42:37;8.00;99.90
11559;DHT22;5835;42.930;25.178;2024-03-02T15:45:06;8.00;99.90
11559;DHT22;5835;42.930;25.178;2024-03-02T15:47:34;8.00;99.90
11559;DHT22;5835;42.930;25.178;2024-03-02T15:50:04;8.00;99.90
11559;DHT22;5835;42.930;25.178;2024-03-02T15:52:31;7.90;99.90
11559;DHT22;5835;42.930;25.178;2024-03-02T15:54:59;8.00;99.90
11559;DHT22;5835;42.930;25.178;2024-03-02T15:57:27;8.00;99.90